Terminal Aerodrome Forecast
Issued by NWS Wilmington, OH

Current Version | Previous Version | Graphics & Text | Print | Product List | Glossary On
Versions: 1 2 3 4 5 6 7 8 9 10 11 12 13 14 15 16 17
000
FTUS41 KILN 250328 AAA
TAFCMH
TAF AMD
KCMH 250328Z 2503/2524 11009KT P6SM SCT035 OVC110
     FM250800 17006KT P6SM VCSH OVC017
     FM251200 17005KT 6SM -SHRA BR OVC015
     FM252300 28009KT 6SM -SHRA BR OVC030=

USA.gov is the U.S. government's official web portal to all federal, state and local government web resources and services.